createdAt,value
2019-05-22T00:00:44.593Z,12.00
2019-05-22T00:06:46.402Z,12.00
2019-05-22T00:09:55.068Z,12.00
2019-05-22T00:12:25.224Z,12.00
2019-05-22T00:14:55.751Z,12.00
2019-05-22T00:17:28.717Z,11.90
2019-05-22T00:19:58.127Z,11.90
2019-05-22T00:22:28.550Z,11.90
2019-05-22T00:43:03.496Z,11.80
2019-05-22T00:52:09.901Z,11.80
2019-05-22T00:55:17.224Z,11.80
2019-05-22T00:57:50.880Z,11.80
2019-05-22T01:00:21.912Z,11.80
2019-05-22T01:02:52.620Z,11.80
2019-05-22T01:05:22.527Z,11.80
2019-05-22T01:07:52.243Z,11.80
2019-05-22T01:11:01.228Z,11.70
2019-05-22T01:13:42.952Z,11.70
2019-05-22T01:16:24.964Z,11.70
2019-05-22T01:19:07.138Z,11.70
2019-05-22T01:21:47.796Z,11.60
2019-05-22T01:24:28.509Z,11.60
2019-05-22T01:27:09.901Z,11.60
2019-05-22T01:29:51.421Z,11.70
2019-05-22T01:32:51.645Z,11.60
2019-05-22T01:35:33.641Z,11.60
2019-05-22T01:38:15.064Z,11.60
2019-05-22T01:40:58.024Z,11.60
2019-05-22T01:43:39.846Z,11.70
2019-05-22T01:46:22.069Z,11.60
2019-05-22T01:49:04.182Z,11.60
2019-05-22T01:51:46.400Z,11.60
2019-05-22T01:54:27.749Z,11.60
2019-05-22T01:57:10.726Z,11.60
2019-05-22T01:59:51.547Z,11.60
2019-05-22T02:02:34.161Z,11.50
2019-05-22T02:05:15.798Z,11.50
2019-05-22T02:07:57.212Z,11.50
2019-05-22T02:10:38.077Z,11.50
2019-05-22T02:13:20.177Z,11.50
2019-05-22T02:16:01.043Z,11.60
2019-05-22T02:18:42.140Z,11.60
2019-05-22T02:21:24.177Z,11.50
2019-05-22T02:24:04.972Z,11.50
2019-05-22T02:26:34.572Z,11.50
2019-05-22T02:29:05.365Z,11.50
2019-05-22T02:32:13.471Z,11.50
2019-05-22T02:40:55.389Z,11.50
2019-05-22T02:50:08.750Z,11.50
2019-05-22T02:55:51.785Z,11.40
2019-05-22T03:04:53.647Z,11.50
2019-05-22T03:10:36.933Z,11.50
2019-05-22T03:13:45.583Z,11.50
2019-05-22T03:16:28.570Z,11.50
2019-05-22T03:19:09.469Z,11.50
2019-05-22T03:21:50.313Z,11.50
2019-05-22T03:24:30.893Z,11.40
2019-05-22T03:27:11.723Z,11.40
2019-05-22T03:29:54.209Z,11.40
2019-05-22T03:32:42.634Z,11.40
2019-05-22T03:35:18.694Z,11.40
2019-05-22T03:38:01.577Z,11.40
2019-05-22T03:40:42.506Z,11.40
2019-05-22T03:43:24.082Z,11.30
2019-05-22T03:46:04.746Z,11.40
2019-05-22T03:48:46.448Z,11.30
2019-05-22T03:51:27.094Z,11.40
2019-05-22T03:53:57.715Z,11.40
2019-05-22T03:56:26.409Z,11.30
2019-05-22T03:58:55.949Z,11.30
2019-05-22T04:05:13.395Z,11.30
2019-05-22T04:11:11.664Z,11.30
2019-05-22T04:14:00.037Z,11.30
2019-05-22T04:29:00.944Z,11.30
2019-05-22T04:32:09.605Z,11.30
2019-05-22T04:34:57.604Z,11.30
2019-05-22T04:41:01.103Z,11.30
2019-05-22T04:49:42.512Z,11.30
2019-05-22T04:52:30.570Z,11.30
2019-05-22T04:58:34.157Z,11.30
2019-05-22T05:01:22.319Z,11.30
2019-05-22T05:07:00.589Z,11.20
2019-05-22T05:09:41.243Z,11.30
2019-05-22T05:12:22.533Z,11.30
2019-05-22T05:15:05.345Z,11.30
2019-05-22T05:17:46.586Z,11.30
2019-05-22T05:20:28.168Z,11.20
2019-05-22T05:23:09.181Z,11.20
2019-05-22T05:25:49.764Z,11.20
2019-05-22T05:28:30.493Z,11.20
2019-05-22T05:31:11.479Z,11.20
2019-05-22T05:33:52.724Z,11.20
2019-05-22T05:36:34.348Z,11.20
2019-05-22T05:39:15.297Z,11.20
2019-05-22T05:41:56.582Z,11.20
2019-05-22T05:44:37.782Z,11.20
2019-05-22T05:47:18.698Z,11.20
2019-05-22T05:49:59.330Z,11.20
2019-05-22T05:52:41.433Z,11.20
2019-05-22T05:55:24.524Z,11.20
2019-05-22T05:58:06.621Z,11.30
2019-05-22T06:00:49.372Z,11.20
2019-05-22T06:03:30.547Z,11.20
2019-05-22T06:06:12.139Z,11.20
2019-05-22T06:08:53.664Z,11.30
2019-05-22T06:11:35.723Z,11.30
2019-05-22T06:14:16.946Z,11.30
2019-05-22T06:16:57.627Z,11.30
2019-05-22T06:19:38.644Z,11.30
2019-05-22T06:22:19.448Z,11.30
2019-05-22T06:25:02.000Z,11.30
2019-05-22T06:27:44.565Z,11.40
2019-05-22T06:30:25.615Z,11.40
2019-05-22T06:33:08.776Z,11.40
2019-05-22T06:38:11.381Z,11.40
2019-05-22T06:40:52.456Z,11.30
2019-05-22T06:43:33.642Z,11.30
2019-05-22T06:46:14.908Z,11.30
2019-05-22T06:48:55.678Z,11.30
2019-05-22T06:51:36.988Z,11.30
2019-05-22T06:54:17.404Z,11.30
2019-05-22T06:56:57.981Z,11.30
2019-05-22T06:59:39.045Z,11.40
2019-05-22T07:02:20.291Z,11.30
2019-05-22T07:05:01.626Z,11.40
2019-05-22T07:07:42.541Z,11.40
2019-05-22T07:10:23.645Z,11.40
2019-05-22T07:13:05.067Z,11.40
2019-05-22T07:15:46.530Z,11.40
2019-05-22T07:18:29.223Z,11.40
2019-05-22T07:21:10.393Z,11.40
2019-05-22T07:23:51.508Z,11.40
2019-05-22T07:26:32.730Z,11.40
2019-05-22T07:29:13.720Z,11.40
2019-05-22T07:31:54.895Z,11.40
2019-05-22T07:34:35.729Z,11.40
2019-05-22T07:37:16.373Z,11.40
2019-05-22T07:39:57.828Z,11.40
2019-05-22T07:42:39.369Z,11.40
2019-05-22T07:45:20.198Z,11.40
2019-05-22T07:48:02.689Z,11.40
2019-05-22T07:50:48.397Z,11.40
2019-05-22T07:53:27.512Z,11.40
2019-05-22T07:56:09.543Z,11.40
2019-05-22T07:58:51.053Z,11.40
2019-05-22T08:01:32.948Z,11.40
2019-05-22T08:04:14.114Z,11.40
2019-05-22T08:06:55.241Z,11.40
2019-05-22T08:09:36.127Z,11.50
2019-05-22T08:12:05.761Z,11.50
2019-05-22T08:14:34.388Z,11.60
2019-05-22T08:17:05.683Z,11.60
2019-05-22T08:19:34.264Z,11.60
2019-05-22T08:22:07.252Z,11.70
2019-05-22T08:24:52.683Z,11.70
2019-05-22T08:51:10.617Z,11.90
2019-05-22T08:57:26.420Z,12.00
2019-05-22T09:09:31.789Z,11.90
2019-05-22T09:12:13.190Z,11.90
2019-05-22T09:14:54.243Z,12.00
2019-05-22T09:17:35.300Z,12.10
2019-05-22T09:20:16.625Z,12.10
2019-05-22T09:22:57.936Z,12.10
2019-05-22T09:25:39.102Z,12.10
2019-05-22T09:28:19.539Z,12.10
2019-05-22T09:31:00.714Z,12.10
2019-05-22T09:33:41.116Z,12.10
2019-05-22T09:36:21.761Z,12.10
2019-05-22T09:39:03.861Z,12.10
2019-05-22T09:41:45.097Z,12.10
2019-05-22T09:44:26.146Z,12.10
2019-05-22T09:47:08.111Z,12.20
2019-05-22T09:49:48.769Z,12.20
2019-05-22T09:52:29.910Z,12.20
2019-05-22T09:55:11.117Z,12.30
2019-05-22T09:57:52.139Z,12.40
2019-05-22T10:00:32.856Z,12.50
2019-05-22T10:03:13.436Z,12.60
2019-05-22T10:05:54.207Z,12.50
2019-05-22T10:08:35.950Z,12.50
2019-05-22T10:11:17.012Z,12.50
2019-05-22T10:13:57.731Z,12.50
2019-05-22T10:16:39.180Z,12.60
2019-05-22T10:19:19.601Z,12.60
2019-05-22T10:24:42.290Z,12.70
2019-05-22T10:27:23.113Z,12.80
2019-05-22T10:30:05.401Z,12.90
2019-05-22T10:32:46.178Z,13.10
2019-05-22T10:35:29.109Z,13.30
2019-05-22T10:38:10.962Z,13.40
2019-05-22T10:40:51.604Z,13.60
2019-05-22T10:43:33.442Z,13.60
2019-05-22T10:46:14.877Z,13.50
2019-05-22T10:48:54.081Z,13.40
2019-05-22T10:54:36.227Z,13.30
2019-05-22T10:57:24.197Z,13.10
2019-05-22T11:17:57.081Z,13.00
2019-05-22T11:20:38.355Z,13.10
2019-05-22T11:23:19.695Z,13.20
2019-05-22T11:26:00.213Z,13.20
2019-05-22T11:28:41.144Z,13.30
2019-05-22T11:31:22.493Z,13.30
2019-05-22T11:34:03.537Z,13.30
2019-05-22T11:36:44.144Z,13.30
2019-05-22T11:39:38.498Z,13.30
2019-05-22T11:42:11.071Z,13.30
2019-05-22T11:44:51.830Z,13.30
2019-05-22T11:47:33.237Z,13.30
2019-05-22T11:50:13.889Z,13.50
2019-05-22T11:52:54.403Z,13.60
2019-05-22T11:55:45.214Z,13.70
2019-05-22T11:58:17.333Z,13.80
2019-05-22T12:00:58.517Z,14.00
2019-05-22T12:03:39.620Z,14.00
2019-05-22T12:06:20.353Z,14.00
2019-05-22T12:09:01.402Z,14.00
2019-05-22T12:11:43.294Z,14.10
2019-05-22T12:14:24.145Z,14.30
2019-05-22T12:16:53.413Z,14.40
2019-05-22T12:19:22.646Z,14.50
2019-05-22T12:21:51.338Z,14.60
2019-05-22T12:24:28.552Z,14.60
2019-05-22T12:26:50.318Z,14.50
2019-05-22T12:29:19.602Z,14.40
2019-05-22T12:31:49.509Z,14.20
2019-05-22T12:34:18.363Z,14.10
2019-05-22T12:37:26.431Z,14.10
2019-05-22T12:40:35.096Z,14.10
2019-05-22T12:43:23.117Z,14.20
2019-05-22T12:49:20.430Z,14.60
2019-05-22T12:55:24.213Z,14.80
2019-05-22T12:58:12.244Z,14.80
2019-05-22T13:01:00.279Z,14.80
2019-05-22T13:03:48.253Z,14.70
2019-05-22T13:15:44.556Z,14.70
2019-05-22T13:21:52.017Z,14.60
2019-05-22T13:27:52.875Z,14.20
2019-05-22T13:33:35.845Z,14.50
2019-05-22T13:36:23.808Z,14.60
2019-05-22T13:39:11.792Z,14.70
2019-05-22T13:41:59.815Z,14.70
2019-05-22T13:44:48.160Z,14.80
2019-05-22T13:56:41.200Z,14.70
2019-05-22T14:02:27.777Z,14.70
2019-05-22T14:05:36.430Z,14.60
2019-05-22T14:14:21.529Z,14.50
2019-05-22T14:17:09.904Z,14.60
2019-05-22T14:19:50.355Z,14.60
2019-05-22T14:22:31.299Z,14.70
2019-05-22T14:25:11.817Z,14.80
2019-05-22T14:27:53.157Z,14.80
2019-05-22T14:30:34.644Z,14.90
2019-05-22T14:33:15.301Z,15.00
2019-05-22T14:35:57.194Z,14.90
2019-05-22T14:38:37.953Z,15.00
2019-05-22T14:41:19.135Z,15.00
2019-05-22T14:44:00.625Z,15.00
2019-05-22T14:46:41.733Z,15.10
2019-05-22T14:49:11.540Z,15.20
2019-05-22T14:51:40.455Z,15.30
2019-05-22T14:54:10.028Z,15.40
2019-05-22T14:56:39.468Z,15.50
2019-05-22T14:59:08.456Z,15.70
2019-05-22T15:01:56.482Z,15.70
2019-05-22T15:07:38.088Z,15.50
2019-05-22T15:16:29.722Z,15.70
2019-05-22T15:22:24.618Z,15.50
2019-05-22T15:25:33.221Z,15.20
2019-05-22T15:28:40.933Z,15.20
2019-05-22T15:34:19.467Z,15.30
2019-05-22T15:36:48.180Z,15.30
2019-05-22T15:39:20.573Z,15.20
2019-05-22T15:41:50.378Z,15.30
2019-05-22T15:44:19.972Z,15.40
2019-05-22T15:47:20.234Z,15.40
2019-05-22T15:53:27.681Z,15.40
2019-05-22T15:59:31.400Z,15.30
2019-05-22T16:05:29.065Z,15.30
2019-05-22T16:11:46.428Z,15.40
2019-05-22T16:14:55.073Z,15.40
2019-05-22T16:20:59.029Z,15.20
2019-05-22T16:23:40.266Z,15.10
2019-05-22T16:26:21.018Z,15.10
2019-05-22T16:29:01.738Z,15.00
2019-05-22T16:31:43.175Z,14.90
2019-05-22T16:34:24.181Z,14.80
2019-05-22T16:37:05.824Z,14.70
2019-05-22T16:39:50.044Z,14.70
2019-05-22T16:42:29.756Z,14.60
2019-05-22T16:45:11.161Z,14.60
2019-05-22T16:47:51.606Z,14.50
2019-05-22T16:50:21.812Z,14.50
2019-05-22T16:53:30.513Z,14.50
2019-05-22T16:56:39.624Z,14.60
2019-05-22T16:59:48.252Z,14.50
2019-05-22T17:05:44.709Z,14.40
2019-05-22T17:08:32.621Z,14.40
2019-05-22T17:14:37.016Z,14.30
2019-05-22T17:20:39.817Z,14.20
2019-05-22T17:23:21.045Z,14.20
2019-05-22T17:26:02.018Z,14.10
2019-05-22T17:28:43.225Z,14.10
2019-05-22T17:31:23.221Z,14.00
2019-05-22T17:34:30.616Z,14.00
2019-05-22T17:40:34.051Z,13.90
2019-05-22T17:43:03.761Z,13.80
2019-05-22T17:45:34.300Z,13.90
2019-05-22T17:48:04.768Z,13.80
2019-05-22T17:50:34.465Z,13.70
2019-05-22T17:53:04.832Z,13.60
2019-05-22T17:55:34.692Z,13.60
2019-05-22T18:10:30.233Z,13.70
2019-05-22T18:13:18.653Z,13.90
2019-05-22T18:18:42.509Z,13.90
2019-05-22T18:21:23.636Z,13.80
2019-05-22T18:24:05.286Z,13.70
2019-05-22T18:26:46.215Z,13.70
2019-05-22T18:29:27.028Z,13.60
2019-05-22T18:32:08.793Z,13.50
2019-05-22T18:34:49.915Z,13.40
2019-05-22T18:37:30.419Z,13.30
2019-05-22T18:40:11.401Z,13.10
2019-05-22T18:42:52.125Z,13.20
2019-05-22T18:45:35.299Z,13.20
2019-05-22T18:48:16.137Z,13.10
2019-05-22T18:50:44.992Z,13.00
2019-05-22T18:53:13.656Z,12.90
2019-05-22T18:55:42.330Z,12.80
2019-05-22T18:58:11.274Z,12.70
2019-05-22T19:00:40.047Z,12.60
2019-05-22T19:03:09.314Z,12.50
2019-05-22T19:09:05.901Z,12.40
2019-05-22T19:17:31.850Z,12.10
2019-05-22T19:20:19.877Z,12.10
2019-05-22T19:23:08.056Z,12.10
2019-05-22T19:25:48.986Z,12.00
2019-05-22T19:28:42.806Z,11.90
2019-05-22T19:33:55.875Z,11.80
2019-05-22T19:36:36.853Z,11.80
2019-05-22T19:39:18.012Z,11.70
2019-05-22T19:42:01.460Z,11.60
2019-05-22T19:44:18.177Z,11.60
2019-05-22T19:55:50.988Z,11.40
2019-05-22T19:58:39.127Z,11.40
2019-05-22T20:01:08.301Z,11.30
2019-05-22T20:03:37.303Z,11.30
2019-05-22T20:06:06.432Z,11.30
2019-05-22T20:08:36.755Z,11.30
2019-05-22T20:11:25.005Z,11.30
2019-05-22T20:23:09.800Z,11.10
2019-05-22T20:25:50.992Z,11.10
2019-05-22T20:28:31.815Z,11.00
2019-05-22T20:31:12.947Z,10.90
2019-05-22T20:33:54.161Z,10.90
2019-05-22T20:36:36.789Z,10.80
2019-05-22T20:39:18.676Z,10.80
2019-05-22T20:42:00.397Z,10.80
2019-05-22T20:44:42.543Z,10.70
2019-05-22T20:47:11.450Z,10.70
2019-05-22T20:49:42.756Z,10.60
2019-05-22T20:52:12.941Z,10.60
2019-05-22T20:54:43.443Z,10.60
2019-05-22T20:57:12.893Z,10.50
2019-05-22T20:59:43.052Z,10.50
2019-05-22T21:05:40.280Z,10.50
2019-05-22T21:14:32.254Z,10.40
2019-05-22T21:20:34.504Z,10.40
2019-05-22T21:25:58.512Z,10.30
2019-05-22T21:28:40.265Z,10.30
2019-05-22T21:31:21.527Z,10.30
2019-05-22T21:34:03.834Z,10.20
2019-05-22T21:36:44.289Z,10.20
2019-05-22T21:39:25.728Z,10.10
2019-05-22T21:41:54.860Z,10.10
2019-05-22T21:44:23.960Z,10.00
2019-05-22T21:46:53.464Z,10.00
2019-05-22T21:49:24.040Z,9.90
2019-05-22T21:51:53.038Z,9.90
2019-05-22T21:54:21.782Z,9.90
2019-05-22T21:56:51.072Z,9.90
2019-05-22T21:59:19.761Z,9.90
2019-05-22T22:10:52.718Z,9.80
2019-05-22T22:22:43.930Z,9.80
2019-05-22T22:25:25.404Z,9.70
2019-05-22T22:28:06.447Z,9.70
2019-05-22T22:33:46.025Z,9.70
2019-05-22T22:42:25.258Z,9.70
2019-05-22T22:45:34.300Z,9.70
2019-05-22T22:51:37.925Z,9.60
2019-05-22T23:03:38.772Z,9.50
2019-05-22T23:09:46.070Z,9.50
2019-05-22T23:18:47.423Z,9.50
2019-05-22T23:24:23.283Z,9.40
2019-05-22T23:26:52.044Z,9.40
2019-05-22T23:29:21.278Z,9.40
2019-05-22T23:31:51.093Z,9.30
2019-05-22T23:34:20.555Z,9.30
2019-05-22T23:40:38.297Z,9.20
2019-05-22T23:46:42.401Z,9.20
2019-05-22T23:58:52.290Z,9.00
